Flight Track Log - Related Links

Times and Time Zones

All times are in EDT time to prevent confusion due to time zone crossing. See the SKW6252 flight status page for this flight to view local times or setup timezone preferences in your user account.


Time Position Orientation Groundspeed Altitude Reporting Facility
EDT Latitude Longitude Course Direction KTS MPH feet Rate Location/Type
Thu 10:03:04 AM 35.3533 -118.9569 131° Southeast 222 255 4,700  Level Los Angeles Center
Thu 10:04:05 AM 35.3050 -118.8942 133° Southeast 262 302 6,500 2,146 Climbing Los Angeles Center
Thu 10:05:00 AM 35.0153 -118.5646 129° Southeast  Level FlightAware Approximate
Thu 10:05:07 AM 35.2503 -118.8264 135° Southeast 278 320 9,100  Level Los Angeles Center
Thu 10:06:00 AM 34.9357 -118.4618 129° Southeast  Level FlightAware Approximate
Thu 10:06:09 AM 35.1925 -118.7556 135° Southeast 289 333 10,800  Level Los Angeles Center
Thu 10:07:00 AM 34.8585 -118.3557 132° Southeast  Level FlightAware Approximate
Thu 10:07:22 AM 35.1294 -118.6744 134° Southeast 321 369 12,400  Level Los Angeles Center
Thu 10:08:00 AM 34.7758 -118.2564 131° Southeast  Level FlightAware Approximate
Thu 10:08:24 AM 35.0483 -118.5772 136° Southeast 338 389 14,500  Level Los Angeles Center
Thu 10:09:26 AM 34.9808 -118.4936 135° Southeast 345 397 16,100 1,548 Climbing Los Angeles Center
Thu 10:10:28 AM 34.9089 -118.4039 134° Southeast 348 400 17,700 1,258 Climbing Los Angeles Center
Thu 10:11:30 AM 34.8378 -118.3189 136° Southeast 356 410 18,700 1,268 Climbing Los Angeles Center
Thu 10:12:31 AM 34.7525 -118.2144 135° Southeast 362 417 20,300 1,366 Climbing Los Angeles Center
Thu 10:13:33 AM 34.6806 -118.1261 135° Southeast 368 423 21,500 1,016 Climbing Los Angeles Center
Thu 10:14:35 AM 34.6369 -118.0169 116° Southeast 381 438 22,400 800 Climbing Los Angeles Center
Thu 10:15:48 AM 34.6503 -117.8900 83° East 382 440 23,300 794 Climbing Los Angeles Center
Thu 10:16:51 AM 34.6675 -117.7339 82° East 392 451 24,200 823 Climbing Los Angeles Center
Thu 10:17:52 AM 34.6808 -117.5986 83° East 403 464 25,000 927 Climbing Los Angeles Center
Thu 10:18:54 AM 34.6978 -117.4344 83° East 411 473 26,100 968 Climbing Los Angeles Center
Thu 10:19:56 AM 34.7286 -117.3061 74° East 402 463 27,000 871 Climbing Los Angeles Center
Thu 10:20:58 AM 34.7692 -117.1811 68° East 402 463 27,900 732 Climbing Los Angeles Center
Thu 10:21:59 AM 34.8089 -117.0539 69° East 406 467 28,500 537 Climbing Los Angeles Center
Thu 10:23:01 AM 34.8511 -116.9272 68° East 406 467 29,000 485 Climbing Los Angeles Center
Thu 10:24:15 AM 34.9278 -116.7911 55° Northeast 422 486 29,600 529 Climbing Los Angeles Center
Thu 10:25:17 AM 35.0175 -116.6658 49° Northeast 413 475 30,200 532 Climbing Los Angeles Center
Thu 10:26:19 AM 35.0933 -116.5603 49° Northeast 416 479 30,700 484 Climbing Los Angeles Center
Thu 10:27:21 AM 35.1697 -116.4528 49° Northeast 419 482 31,200 532 Climbing Los Angeles Center
Thu 10:28:23 AM 35.2483 -116.3469 48° Northeast 419 482 31,800 528 Climbing Los Angeles Center
Thu 10:29:26 AM 35.3236 -116.2411 49° Northeast 416 479 32,300 387 Climbing Los Angeles Center
Thu 10:30:27 AM 35.4125 -116.1125 50° Northeast 414 476 32,600 341 Climbing Los Angeles Center
Thu 10:31:29 AM 35.4900 -116.0058 48° Northeast 418 481 33,000 194 Climbing Los Angeles Center
Thu 10:32:31 AM 35.5678 -115.8967 49° Northeast 425 489 33,000  Level Los Angeles Center
Thu 10:33:32 AM 35.6344 -115.8006 50° Northeast 431 496 33,000  Level Los Angeles Center
Thu 10:34:35 AM 35.7294 -115.6650 49° Northeast 439 505 33,000  Level Los Angeles Center
Thu 10:35:37 AM 35.8097 -115.5494 49° Northeast 445 512 33,000  Level Los Angeles Center
Thu 10:36:39 AM 35.9064 -115.4103 49° Northeast 449 517 33,000  Level Los Angeles Center
Thu 10:37:41 AM 35.9872 -115.2947 49° Northeast 450 518 33,000  Level Los Angeles Center
Thu 10:38:43 AM 36.0642 -115.1786 51° Northeast 442 509 33,000  Level Los Angeles Center
Thu 10:39:45 AM 36.1169 -115.0364 65° Northeast 455 524 33,000  Level Los Angeles Center
Thu 10:40:46 AM 36.1622 -114.8906 69° East 457 526 33,000  Level Los Angeles Center
Thu 10:42:00 AM 36.2072 -114.7439 69° East 458 527 33,000  Level Los Angeles Center
Thu 10:43:03 AM 36.2694 -114.5375 69° East 459 528 33,000  Level Los Angeles Center
Thu 10:44:05 AM 36.3142 -114.3914 69° East 455 524 33,000  Level Los Angeles Center
Thu 10:45:19 AM 36.3583 -114.2444 69° East 455 524 33,000  Level Los Angeles Center
Thu 10:46:21 AM 36.4117 -114.0672 69° East 456 525 33,000  Level Los Angeles Center
Thu 10:47:23 AM 36.4556 -113.9200 70° East 457 526 33,000  Level Los Angeles Center
Thu 10:48:25 AM 36.5114 -113.7503 68° East 456 525 33,000  Level Los Angeles Center
Thu 10:49:27 AM 36.5625 -113.6067 66° East 456 525 33,000  Level Los Angeles Center
Thu 10:50:41 AM 36.6122 -113.4622 67° East 456 525 33,000  Level Los Angeles Center
Thu 10:51:43 AM 36.6719 -113.2881 67° East 457 526 33,000  Level Los Angeles Center
Thu 10:52:45 AM 36.7219 -113.1425 67° East 459 528 33,000  Level Los Angeles Center
Thu 10:53:47 AM 36.7828 -112.9664 67° East 463 533 33,000  Level Los Angeles Center
Thu 10:54:49 AM 36.8322 -112.8194 67° East 462 532 33,000  Level Los Angeles Center
Thu 10:55:51 AM 36.8825 -112.6725 67° East 464 534 33,000  Level Los Angeles Center
Thu 10:56:53 AM 36.9328 -112.5247 67° East 466 536 33,000  Level Los Angeles Center
Thu 10:57:55 AM 36.9811 -112.3778 68° East 463 533 33,000  Level Los Angeles Center
Thu 10:58:57 AM 37.0414 -112.1994 67° East 466 536 33,000  Level Los Angeles Center
Thu 10:59:59 AM 37.0914 -112.0503 67° East 468 539 33,000  Level Los Angeles Center
Thu 11:00:17 AM 37.1014 -112.0208 67° East 468 539 33,000  Level Denver Center
Thu 11:01:01 AM 37.1403 -111.9006 68° East 468 539 33,000  Level Los Angeles Center
Thu 11:01:19 AM 37.1611 -111.8408 66° East 469 540 33,000  Level Denver Center
Thu 11:02:21 AM 37.2103 -111.6911 68° East 468 539 33,000  Level Denver Center
Thu 11:03:23 AM 37.2575 -111.5433 68° East 464 534 33,000  Level Denver Center
Thu 11:04:26 AM 37.3042 -111.3942 68° East 462 532 33,000  Level Denver Center
Thu 11:05:28 AM 37.3531 -111.2461 67° East 461 531 33,000  Level Denver Center
Thu 11:06:30 AM 37.4000 -111.0967 68° East 462 532 33,000  Level Denver Center
Thu 11:07:32 AM 37.4583 -110.9175 68° East 463 533 33,000  Level Denver Center
Thu 11:08:34 AM 37.5053 -110.7664 69° East 464 534 33,000  Level Denver Center
Thu 11:09:36 AM 37.5525 -110.6169 68° East 462 532 33,000  Level Denver Center
Thu 11:10:38 AM 37.6033 -110.4517 69° East 461 531 33,000  Level Denver Center
Thu 11:11:40 AM 37.6492 -110.3078 68° East 462 532 33,000  Level Denver Center
Thu 11:12:42 AM 37.7014 -110.1397 69° East 459 528 33,000  Level Denver Center
Thu 11:13:44 AM 37.7453 -109.9944 69° East 462 532 33,000  Level Denver Center
Thu 11:14:46 AM 37.7900 -109.8497 69° East 460 529 33,000  Level Denver Center
Thu 11:15:48 AM 37.8425 -109.6811 68° East 460 529 33,000  Level Denver Center
Thu 11:16:50 AM 37.8858 -109.5350 69° East 462 532 33,000  Level Denver Center
Thu 11:17:52 AM 37.9364 -109.3658 69° East 460 529 33,000  Level Denver Center
Thu 11:18:54 AM 37.9808 -109.2200 69° East 462 532 33,000  Level Denver Center
Thu 11:19:56 AM 38.0308 -109.0494 70° East 462 532 33,000  Level Denver Center
Thu 11:20:58 AM 38.0786 -108.8861 70° East 463 533 33,000  Level Denver Center
Thu 11:22:00 AM 38.1208 -108.7428 69° East 457 526 33,000  Level Denver Center
Thu 11:23:02 AM 38.1700 -108.5736 70° East 456 525 33,000  Level Denver Center
Thu 11:24:04 AM 38.2125 -108.4297 69° East 455 524 33,000  Level Denver Center
Thu 11:25:06 AM 38.2536 -108.2872 70° East 452 520 33,000  Level Denver Center
Thu 11:26:08 AM 38.3025 -108.1192 70° East 454 522 33,000  Level Denver Center
Thu 11:27:11 AM 38.3522 -107.9831 65° Northeast 449 517 33,000  Level Denver Center
Thu 11:28:13 AM 38.4183 -107.8300 61° Northeast 443 510 33,000  Level Denver Center
Thu 11:29:15 AM 38.4744 -107.6983 61° Northeast 443 510 33,000  Level Denver Center
Thu 11:30:17 AM 38.5414 -107.5425 61° Northeast 449 517 33,000  Level Denver Center
Thu 11:31:19 AM 38.5989 -107.4081 61° Northeast 450 518 33,000  Level Denver Center
Thu 11:32:21 AM 38.6650 -107.2514 62° Northeast 450 518 33,000  Level Denver Center
Thu 11:33:23 AM 38.7183 -107.1258 61° Northeast 454 522 33,000  Level Denver Center
Thu 11:34:25 AM 38.7897 -106.9575 61° Northeast 452 520 33,000  Level Denver Center
Thu 11:35:27 AM 38.8494 -106.8164 61° Northeast 452 520 33,000  Level Denver Center
Thu 11:36:29 AM 38.9128 -106.6628 62° Northeast 455 524 33,000  Level Denver Center
Thu 11:37:31 AM 38.9689 -106.5272 62° Northeast 453 521 33,000  Level Denver Center
Thu 11:38:33 AM 39.0356 -106.3678 62° Northeast 454 522 33,000 -48 Level Denver Center
Thu 11:39:35 AM 39.0917 -106.2303 62° Northeast 454 522 32,900 -1,694 Descending Denver Center
Thu 11:40:37 AM 39.1564 -106.0708 62° Northeast 460 529 29,500 -2,903 Descending Denver Center
Thu 11:41:39 AM 39.2111 -105.9372 62° Northeast 428 493 26,900 -2,419 Descending Denver Center
Thu 11:42:41 AM 39.2603 -105.8144 63° Northeast 392 451 24,500 -2,226 Descending Denver Center
Thu 11:43:43 AM 39.3064 -105.7008 62° Northeast 363 418 22,300 -1,968 Descending Denver Center
Thu 11:44:46 AM 39.3500 -105.5958 62° Northeast 338 389 20,400 -1,824 Descending Denver Center
Thu 11:45:48 AM 39.3983 -105.4756 62° Northeast 323 372 18,500 -1,210 Descending Denver Center
Thu 11:46:50 AM 39.4017 -105.3553 88° East 328 377 17,900 -919 Descending Denver Center
Thu 11:47:52 AM 39.4069 -105.2411 87° East 322 371 16,600 -1,210 Descending Denver Center
Thu 11:48:54 AM 39.4114 -105.1211 87° East 314 361 15,400 -1,258 Descending Denver Center
Thu 11:49:56 AM 39.4158 -105.0133 87° East 305 351 14,000 -1,355 Descending Denver Center
Thu 11:50:58 AM 39.4231 -104.9008 85° East 295 339 12,600 -1,306 Descending Denver Center
Thu 11:52:00 AM 39.4833 -104.8367 39° Northeast 289 333 11,300 -1,210 Descending Denver Center
Thu 11:53:02 AM 39.5556 -104.7897 27° Northeast 271 312 10,100 -726 Descending Denver Center
Thu 11:54:04 AM 39.6075 -104.7536 28° Northeast 214 246 9,800 -629 Descending Denver Center
Thu 11:55:06 AM 39.6636 -104.7128 29° Northeast 213 245 8,800 -968 Descending Denver Center
Thu 11:56:08 AM 39.7194 -104.6717 30° Northeast 228 262 7,800 -1,016 Descending Denver Center
Thu 11:57:10 AM 39.7719 -104.6617 North 180 207 6,700 -919 Descending Denver Center
Thu 11:58:12 AM 39.8122 -104.6614 360° North 151 174 5,900 -774 Descending Denver Center

Login

Don't have an account? Register now (free) for customized features, flight alerts, and more!